Time;durP1;ratioP1;P1;durP2;ratioP2;P2;SDS_P1;SDS_P2;PMS_P1;PMS_P2;Temp;Humidity;BMP_temperature;BMP_pressure;BME280_temperature;BME280_humidity;BME280_pressure;Samples;Min_cycle;Max_cycle;Signal;HPM_P1;HPM_P2
2023/10/08 00:06:54;;;;;;;1.77;0.90;;;;;;;;;;21156890;28;20200;-66
2023/10/08 00:16:56;;;;;;;2.50;1.17;;;;;;;;;;21125784;27;20227;-65
2023/10/08 00:27:00;;;;;;;1.67;0.87;;;;;;;;;;21116096;28;20636;-65
2023/10/08 00:37:02;;;;;;;1.20;0.70;;;;;;;;;;21106962;27;20300;-65
2023/10/08 00:47:06;;;;;;;3.23;1.10;;;;;;;;;;21106814;27;20253;-66
2023/10/08 00:57:08;;;;;;;1.40;0.80;;;;;;;;;;21115175;28;20216;-66
2023/10/08 01:07:15;;;;;;;2.83;1.23;;;;;;;;;;21116880;28;20211;-66
2023/10/08 01:17:19;;;;;;;2.63;1.10;;;;;;;;;;21144633;27;20231;-65
2023/10/08 01:27:27;;;;;;;1.50;0.97;;;;;;;;;;21100597;28;20259;-65
2023/10/08 01:37:33;;;;;;;1.93;1.17;;;;;;;;;;21130757;28;20722;-66
2023/10/08 01:47:35;;;;;;;1.57;0.90;;;;;;;;;;21090085;28;20292;-66
2023/10/08 01:57:37;;;;;;;2.33;1.00;;;;;;;;;;21104774;28;20220;-66
2023/10/08 02:07:39;;;;;;;2.00;1.03;;;;;;;;;;21099684;28;20295;-65
2023/10/08 02:17:43;;;;;;;1.90;0.97;;;;;;;;;;21106416;28;20227;-65
2023/10/08 02:27:45;;;;;;;3.00;1.10;;;;;;;;;;21128458;28;20249;-65
2023/10/08 02:37:47;;;;;;;3.70;1.20;;;16.50;99.90;;;;;;21052211;22;20706;-87
2023/10/08 02:48:11;;;;;;;1.80;0.90;;;;;;;;;;20904800;28;20217;-86
2023/10/08 02:58:43;;;;;;;2.20;1.00;;;;;;;;;;20933831;28;20237;-87
2023/10/08 03:08:47;;;;;;;1.63;0.97;;;;;;;;;;20931874;28;20260;-86
2023/10/08 03:18:50;;;;;;;2.20;1.03;;;;;;;;;;20929518;28;20280;-86
2023/10/08 03:28:57;;;;;;;1.77;1.10;;;;;;;;;;20910449;28;20233;-86
2023/10/08 03:39:13;;;;;;;1.70;0.87;;;;;;;;;;20893353;28;20251;-89
2023/10/08 03:59:29;;;;;;;1.90;0.90;;;;;;;;;;20907537;28;20237;-87
2023/10/08 04:09:39;;;;;;;2.03;1.00;;;;;;;;;;20913426;28;20213;-86
2023/10/08 04:20:30;;;;;;;1.63;0.83;;;;;;;;;;20920230;28;20233;-86
2023/10/08 04:30:33;;;;;;;2.20;1.07;;;;;;;;;;20916803;28;20566;-86
2023/10/08 04:40:47;;;;;;;1.87;1.07;;;;;;;;;;20900467;28;20244;-86
2023/10/08 04:50:59;;;;;;;1.50;0.80;;;;;;;;;;20949438;28;20279;-87
2023/10/08 05:21:28;;;;;;;3.67;1.20;;;;;;;;;;20856831;28;20849;-64
2023/10/08 05:42:05;;;;;;;2.17;1.00;;;;;;;;;;20853296;28;20194;-63
2023/10/08 05:52:14;;;;;;;2.47;1.20;;;;;;;;;;20887113;28;20217;-64
2023/10/08 06:02:29;;;;;;;2.00;1.00;;;;;;;;;;20851903;28;20272;-63
2023/10/08 06:12:39;;;;;;;2.70;0.90;;;;;;;;;;20858983;28;20225;-63
2023/10/08 06:22:41;;;;;;;1.97;1.10;;;;;;;;;;20798642;28;20275;-64
2023/10/08 06:32:47;;;;;;;2.13;1.10;;;;;;;;;;20811554;28;20304;-63
2023/10/08 06:42:51;;;;;;;1.60;1.10;;;;;;;;;;20834997;28;20814;-65
2023/10/08 06:52:54;;;;;;;1.80;1.00;;;;;;;;;;20809772;28;20245;-63
2023/10/08 07:02:56;;;;;;;2.50;1.10;;;;;;;;;;20826251;28;20774;-63
2023/10/08 07:12:59;;;;;;;2.03;1.20;;;;;;;;;;20779020;28;20249;-63
2023/10/08 07:23:02;;;;;;;2.80;1.40;;;;;;;;;;20806654;28;20215;-63
2023/10/08 07:33:04;;;;;;;2.33;1.50;;;;;;;;;;20836331;28;20285;-64
2023/10/08 07:43:08;;;;;;;3.90;1.33;;;;;;;;;;20812038;28;20224;-64
2023/10/08 07:53:17;;;;;;;1.77;1.07;;;;;;;;;;20821603;28;20693;-63
2023/10/08 08:03:20;;;;;;;4.20;1.07;;;15.60;99.90;;;;;;20788175;28;20277;-64
2023/10/08 08:13:21;;;;;;;2.13;1.40;;;;;;;;;;20794600;28;20295;-64
2023/10/08 08:23:23;;;;;;;3.33;1.43;;;;;;;;;;20807691;28;20599;-64
2023/10/08 08:33:29;;;;;;;4.57;1.30;;;;;;;;;;20842131;28;20222;-64
2023/10/08 08:43:33;;;;;;;3.33;1.17;;;;;;;;;;20796359;28;20296;-64
2023/10/08 08:53:39;;;;;;;2.37;1.17;;;17.00;99.90;;;;;;20838551;28;20264;-64
2023/10/08 09:03:41;;;;;;;1.97;1.00;;;;;;;;;;20799379;28;20292;-64
2023/10/08 09:13:43;;;;;;;1.93;1.20;;;;;;;;;;20780349;28;20763;-64
2023/10/08 09:23:50;;;;;;;4.03;1.10;;;;;;;;;;20800376;28;20210;-64
2023/10/08 09:33:55;;;;;;;5.90;2.30;;;;;;;;;;20785081;28;20222;-64
2023/10/08 09:43:59;;;;;;;2.37;1.00;;;17.60;99.90;;;;;;20797198;28;20732;-64
2023/10/08 09:54:13;;;;;;;1.77;0.90;;;;;;;;;;20826154;28;20234;-64
2023/10/08 10:04:28;;;;;;;3.40;1.33;;;;;;;;;;20785591;28;20521;-63
2023/10/08 10:14:42;;;;;;;1.87;1.10;;;;;;;;;;20826766;28;20284;-64
2023/10/08 10:24:45;;;;;;;1.67;1.17;;;;;;;;;;20820661;28;20261;-63
2023/10/08 10:34:47;;;;;;;2.40;1.10;;;;;;;;;;20791853;28;20280;-66
2023/10/08 10:44:50;;;;;;;3.60;1.10;;;;;;;;;;20670395;23;20225;-77
2023/10/08 10:54:58;;;;;;;2.53;1.03;;;;;;;;;;20593748;28;20236;-77
2023/10/08 11:05:07;;;;;;;4.53;1.40;;;;;;;;;;20588375;28;20217;-77
2023/10/08 11:15:15;;;;;;;3.03;1.27;;;;;;;;;;20588713;28;20224;-77
2023/10/08 11:25:27;;;;;;;2.90;1.10;;;19.90;99.90;;;;;;20558476;28;20209;-78
2023/10/08 11:35:33;;;;;;;3.03;1.23;;;;;;;;;;20579441;28;20218;-77
2023/10/08 11:45:38;;;;;;;1.60;0.90;;;;;;;;;;20560344;28;20233;-78
2023/10/08 11:55:42;;;;;;;2.63;1.30;;;;;;;;;;20589192;28;20227;-77
2023/10/08 12:05:52;;;;;;;2.80;1.40;;;21.20;99.90;;;;;;20581108;28;20207;-77
2023/10/08 12:16:12;;;;;;;2.30;1.23;;;21.60;99.90;;;;;;20580719;28;20230;-77
2023/10/08 12:26:18;;;;;;;2.47;1.43;;;;;;;;;;20553387;28;20272;-78
2023/10/08 12:36:23;;;;;;;2.20;1.10;;;21.90;99.90;;;;;;20573590;28;20229;-78
2023/10/08 12:46:25;;;;;;;2.23;1.27;;;;;;;;;;20585618;28;20651;-78
2023/10/08 12:56:35;;;;;;;2.83;1.30;;;;;;;;;;20547147;28;20229;-78
2023/10/08 13:06:37;;;;;;;5.23;1.70;;;;;;;;;;20590400;28;20209;-76
2023/10/08 13:16:39;;;;;;;2.07;1.20;;;22.40;99.90;;;;;;20580775;28;20222;-76
2023/10/08 13:26:42;;;;;;;4.80;1.60;;;;;;;;;;20587429;28;20285;-76
2023/10/08 13:36:46;;;;;;;4.13;1.50;;;;;;;;;;20577212;28;20250;-75
2023/10/08 13:46:48;;;;;;;2.07;1.20;;;;;;;;;;20590482;28;20285;-75
2023/10/08 13:56:50;;;;;;;2.77;1.50;;;;;;;;;;20600846;28;20289;-75
2023/10/08 14:06:52;;;;;;;4.20;1.47;;;;;;;;;;20569583;28;20220;-78
2023/10/08 14:16:59;;;;;;;2.27;1.10;;;;;;;;;;20601028;28;20276;-77
2023/10/08 14:27:09;;;;;;;2.67;1.50;;;;;;;;;;20622747;28;20222;-78
2023/10/08 14:47:31;;;;;;;3.10;1.30;;;;;;;;;;20591266;28;20697;-75
2023/10/08 14:57:33;;;;;;;3.00;1.30;;;;;;;;;;20596639;28;20283;-76
2023/10/08 15:07:36;;;;;;;2.27;1.40;;;;;;;;;;20583438;28;20226;-76
2023/10/08 15:17:37;;;;;;;2.70;1.10;;;;;;;;;;20588445;28;20214;-75
2023/10/08 15:27:40;;;;;;;4.70;1.27;;;;;;;;;;20580702;28;20223;-75
2023/10/08 15:37:42;;;;;;;2.97;1.60;;;21.50;99.90;;;;;;20582194;28;20577;-75
2023/10/08 15:47:44;;;;;;;4.23;1.63;;;;;;;;;;20576260;28;20661;-75
2023/10/08 15:57:46;;;;;;;2.60;1.20;;;;;;;;;;20592924;28;20229;-75
2023/10/08 16:07:48;;;;;;;3.60;1.27;;;;;;;;;;20580455;28;20269;-76
2023/10/08 16:17:51;;;;;;;2.70;1.17;;;;;;;;;;20584143;28;20269;-75
2023/10/08 16:27:53;;;;;;;4.30;1.43;;;;;;;;;;20577170;28;20234;-74
2023/10/08 16:37:56;;;;;;;4.10;2.23;;;;;;;;;;20582934;28;20231;-74
2023/10/08 16:47:59;;;;;;;5.00;1.40;;;;;;;;;;20577343;28;20763;-75
2023/10/08 16:58:00;;;;;;;3.27;1.67;;;;;;;;;;20584266;28;20643;-75
2023/10/08 17:08:02;;;;;;;3.87;1.57;;;;;;;;;;20574894;28;20221;-74
2023/10/08 17:18:06;;;;;;;5.30;1.40;;;;;;;;;;20672190;23;20293;-65
2023/10/08 17:28:09;;;;;;;4.27;1.60;;;;;;;;;;20636444;28;20296;-64
2023/10/08 17:38:12;;;;;;;3.00;1.70;;;;;;;;;;20633478;28;20313;-65
2023/10/08 17:48:14;;;;;;;4.60;2.47;;;;;;;;;;20630894;28;20677;-65
2023/10/08 17:58:17;;;;;;;5.50;2.20;;;;;;;;;;20621638;28;20690;-65
2023/10/08 18:08:19;;;;;;;6.53;1.70;;;;;;;;;;20624400;28;20974;-64
2023/10/08 18:18:25;;;;;;;3.90;1.53;;;;;;;;;;20622133;28;20224;-65
2023/10/08 18:28:27;;;;;;;2.17;1.27;;;;;;;;;;20638865;28;20229;-64
2023/10/08 18:38:28;;;;;;;3.50;1.40;;;;;;;;;;20614448;28;20254;-65
2023/10/08 18:48:31;;;;;;;2.60;1.40;;;;;;;;;;20601761;28;20276;-64
2023/10/08 18:58:35;;;;;;;2.67;1.30;;;;;;;;;;20647038;28;20245;-65
2023/10/08 19:08:40;;;;;;;2.20;1.50;;;;;;;;;;20618878;28;20221;-65
2023/10/08 19:18:44;;;;;;;3.73;1.60;;;19.30;99.90;;;;;;20626952;28;20234;-65
2023/10/08 19:28:48;;;;;;;2.53;1.70;;;;;;;;;;20636281;28;20222;-64
2023/10/08 19:38:50;;;;;;;3.07;1.77;;;;;;;;;;20629889;28;20298;-64
2023/10/08 19:48:53;;;;;;;4.50;2.10;;;;;;;;;;20637650;28;20229;-64
2023/10/08 19:58:55;;;;;;;2.47;1.37;;;;;;;;;;20627814;28;20225;-67
2023/10/08 20:09:01;;;;;;;4.80;1.77;;;;;;;;;;20617462;28;20326;-64
2023/10/08 20:19:05;;;;;;;4.73;1.80;;;;;;;;;;20618182;28;20276;-64
2023/10/08 20:29:07;;;;;;;2.60;1.33;;;;;;;;;;20596889;28;20217;-64
2023/10/08 20:39:10;;;;;;;2.90;1.50;;;;;;;;;;20628286;28;20632;-64
2023/10/08 20:49:12;;;;;;;2.47;1.50;;;;;;;;;;20654292;28;20233;-64
2023/10/08 20:59:14;;;;;;;2.53;1.40;;;;;;;;;;20582426;28;20225;-64
2023/10/08 21:09:16;;;;;;;3.03;1.60;;;;;;;;;;20602729;28;20222;-64
2023/10/08 21:19:18;;;;;;;4.37;1.50;;;;;;;;;;20578158;28;20277;-63
2023/10/08 21:29:20;;;;;;;3.90;1.73;;;;;;;;;;20613685;28;20212;-64
2023/10/08 21:39:23;;;;;;;3.23;1.60;;;;;;;;;;20599204;28;20291;-64
2023/10/08 21:49:25;;;;;;;3.77;1.67;;;;;;;;;;20638931;28;20216;-64
2023/10/08 21:59:28;;;;;;;3.43;1.50;;;;;;;;;;20664191;28;20232;-64
2023/10/08 22:09:32;;;;;;;3.87;1.83;;;;;;;;;;20625163;28;20326;-64
2023/10/08 22:19:42;;;;;;;3.00;1.80;;;;;;;;;;20645178;28;20236;-64
2023/10/08 22:29:47;;;;;;;3.07;1.47;;;;;;;;;;20579601;28;20237;-64
2023/10/08 22:39:51;;;;;;;2.77;1.50;;;;;;;;;;20645153;28;20303;-64
2023/10/08 22:49:54;;;;;;;5.43;1.60;;;17.60;99.90;;;;;;20627377;28;20218;-64
2023/10/08 22:59:57;;;;;;;3.60;1.70;;;;;;;;;;20624645;28;20222;-64
2023/10/08 23:10:00;;;;;;;5.10;1.47;;;;;;;;;;20633636;28;20225;-64
2023/10/08 23:20:06;;;;;;;4.40;1.47;;;;;;;;;;20611463;23;20330;-76
2023/10/08 23:30:10;;;;;;;3.30;1.60;;;;;;;;;;20587164;28;20642;-75
2023/10/08 23:40:18;;;;;;;4.27;1.50;;;;;;;;;;20568042;28;20225;-76
2023/10/08 23:50:29;;;;;;;4.80;1.70;;;;;;;;;;20546146;28;20209;-75
